Airfield :
LOGIN :

Register | Disclaimer

   EN    FR    IT 

 










Legend :    VFR   Marginal VFR   IFR   Intensive IFR   Very Intensive IFR
Visi :
Ceiling :
>= 8 km
>= 3000ft
5 to 8 km
1000 to 3000 ft
1500m to 5 km
500 to 1000 ft
800 to 1500m
200 to 500 ft
< 800m
< 200 ft
Symbols :   Thunderstorms  Fog  Heavy snow  Heavy precipitations  Wind > 20 kt
SIGMETs :     Misc.  Thunderstorms  Icing  Turbulence  Mountain Waves  Volcanic Ashes






- Airport Elevation : 203 ft
- IATA code : XMJ


LFBM - Mont-De-Marsan

CURRENT METAR :
  • 082000Z AUTO 24007KT 9999 FEW027 OVC034 11/09 Q1023 NOSIG

EXPIRED METARs :
  • 081930Z AUTO 25008KT 9999 FEW030 BKN036 BKN200 11/09 Q1023 NOSIG
  • 081900Z AUTO 25007KT 9999 BKN027 OVC033 11/10 Q1023 NOSIG
  • 081830Z AUTO 27008KT 9999 SCT036 OVC200 11/10 Q1022 NOSIG
  • 081800Z AUTO 28009KT CAVOK 11/10 Q1022 NOSIG
  • 081730Z AUTO 29010KT 9999 FEW011 SCT029 BKN170 12/11 Q1021 NOSIG

TAF TAF LFBM
Valid from the 08 at 15:00 until the 09 at 15:00 UTC


081400Z 0815/0915 26005KT 9999 OVC025
TEMPO 0815/0818 4000 -RADZ OVC005
BECMG 0818/0820 26010G25KT
TEMPO 0903/0915 27015G35KT 4000 -SHRA SCT015TCU BKN035



MET'MAP, your aeronautical weather chart ! - Copyright ORBIFLY December 2007 - Disclaimer

ORBIFLY MET'MAP TEAM :

Programming & Development : Alexandra Zaïnal
Concept & original design : Baudouin d'Aumeries
Assistance for programming : Marc-Olivier Méhu
Technical & hardware support : Manuel Goepfert

Contact : metmap@orbifly.com




SOURCES & CREDITS :

   NOAA